createdAt,value
2019-01-23T00:00:38.064Z,42.00
2019-01-23T00:03:07.458Z,40.40
2019-01-23T00:05:36.543Z,39.80
2019-01-23T00:08:06.056Z,39.08
2019-01-23T00:10:35.651Z,41.42
2019-01-23T00:13:04.723Z,38.73
2019-01-23T00:15:33.848Z,41.55
2019-01-23T00:18:02.933Z,43.60
2019-01-23T00:20:32.009Z,38.33
2019-01-23T00:23:01.446Z,39.27
2019-01-23T00:25:30.842Z,41.45
2019-01-23T00:28:00.251Z,39.58
2019-01-23T00:30:29.392Z,42.80
2019-01-23T00:32:58.742Z,38.40
2019-01-23T00:35:27.813Z,43.80
2019-01-23T00:37:56.938Z,40.50
2019-01-23T00:40:26.344Z,46.13
2019-01-23T00:42:55.742Z,40.73
2019-01-23T00:45:25.148Z,41.15
2019-01-23T00:47:54.213Z,42.27
2019-01-23T00:50:23.278Z,42.55
2019-01-23T00:52:52.414Z,42.10
2019-01-23T00:55:21.485Z,43.85
2019-01-23T00:57:50.559Z,36.93
2019-01-23T01:00:26.954Z,43.50
2019-01-23T01:02:56.295Z,42.55
2019-01-23T01:05:25.382Z,40.48
2019-01-23T01:07:54.524Z,39.53
2019-01-23T01:10:23.593Z,40.48
2019-01-23T01:12:52.983Z,39.27
2019-01-23T01:15:22.373Z,40.80
2019-01-23T01:17:51.486Z,39.63
2019-01-23T01:20:20.574Z,34.60
2019-01-23T01:22:49.683Z,39.13
2019-01-23T01:25:19.114Z,43.78
2019-01-23T01:27:48.180Z,38.95
2019-01-23T01:30:23.716Z,37.90
2019-01-23T01:32:53.117Z,33.25
2019-01-23T01:35:22.191Z,38.08
2019-01-23T01:37:51.303Z,39.70
2019-01-23T01:40:20.720Z,37.13
2019-01-23T01:42:49.783Z,41.15
2019-01-23T01:45:18.908Z,37.05
2019-01-23T01:47:48.027Z,42.88
2019-01-23T01:50:19.604Z,33.30
2019-01-23T01:52:48.722Z,39.55
2019-01-23T01:55:17.783Z,43.98
2019-01-23T01:57:47.143Z,39.98
2019-01-23T02:00:22.770Z,37.58
2019-01-23T02:02:51.836Z,40.85
2019-01-23T02:05:20.913Z,39.85
2019-01-23T02:07:50.023Z,43.30
2019-01-23T02:10:20.703Z,36.88
2019-01-23T02:12:49.762Z,37.50
2019-01-23T02:15:19.292Z,40.88
2019-01-23T02:17:48.690Z,47.48
2019-01-23T02:20:21.374Z,42.23
2019-01-23T02:22:50.795Z,31.52
2019-01-23T02:25:20.598Z,44.85
2019-01-23T02:27:50.249Z,38.85
2019-01-23T02:30:21.995Z,36.00
2019-01-23T02:32:51.359Z,41.05
2019-01-23T02:35:20.435Z,41.53
2019-01-23T02:37:49.558Z,41.55
2019-01-23T02:40:21.319Z,39.75
2019-01-23T02:42:50.721Z,41.65
2019-01-23T02:45:20.143Z,40.05
2019-01-23T02:47:49.781Z,40.65
2019-01-23T02:50:19.144Z,43.42
2019-01-23T02:52:48.286Z,40.15
2019-01-23T02:55:17.362Z,42.05
2019-01-23T02:57:46.443Z,41.75
2019-01-23T03:00:19.554Z,38.75
2019-01-23T03:02:49.564Z,43.50
2019-01-23T03:05:20.038Z,39.92
2019-01-23T03:07:49.154Z,44.58
2019-01-23T03:10:19.992Z,39.35
2019-01-23T03:12:49.381Z,40.28
2019-01-23T03:15:18.996Z,42.00
2019-01-23T03:17:48.072Z,45.43
2019-01-23T03:20:18.602Z,42.08
2019-01-23T03:22:47.716Z,41.53
2019-01-23T03:25:17.104Z,43.98
2019-01-23T03:27:46.169Z,39.23
2019-01-23T03:30:21.163Z,41.08
2019-01-23T03:32:50.580Z,40.83
2019-01-23T03:35:19.611Z,35.13
2019-01-23T03:37:48.743Z,41.50
2019-01-23T03:40:21.900Z,32.60
2019-01-23T03:42:51.230Z,41.63
2019-01-23T03:45:20.922Z,44.35
2019-01-23T03:47:50.326Z,43.10
2019-01-23T03:50:20.059Z,38.05
2019-01-23T03:52:49.174Z,39.73
2019-01-23T03:55:19.280Z,44.13
2019-01-23T03:57:48.661Z,39.33
2019-01-23T04:00:20.772Z,41.85
2019-01-23T04:02:51.164Z,37.38
2019-01-23T04:05:20.556Z,45.85
2019-01-23T04:07:49.890Z,41.08
2019-01-23T04:10:19.022Z,40.58
2019-01-23T04:12:48.109Z,43.50
2019-01-23T04:15:18.041Z,39.80
2019-01-23T04:17:47.106Z,36.68
2019-01-23T04:20:19.379Z,25.75
2019-01-23T04:22:48.510Z,38.28
2019-01-23T04:25:17.571Z,36.50
2019-01-23T04:27:46.699Z,43.20
2019-01-23T04:30:24.358Z,42.20
2019-01-23T04:32:53.717Z,44.30
2019-01-23T04:35:22.783Z,43.98
2019-01-23T04:37:52.508Z,39.13
2019-01-23T04:40:21.829Z,41.63
2019-01-23T04:42:50.907Z,42.50
2019-01-23T04:45:20.196Z,46.33
2019-01-23T04:47:49.521Z,44.75
2019-01-23T04:50:19.263Z,38.00
2019-01-23T04:52:50.101Z,41.92
2019-01-23T04:55:19.179Z,37.48
2019-01-23T04:57:48.312Z,42.10
2019-01-23T05:00:19.087Z,41.18
2019-01-23T05:02:48.162Z,41.40
2019-01-23T05:05:17.238Z,46.13
2019-01-23T05:07:46.417Z,44.45
2019-01-23T05:10:15.510Z,43.60
2019-01-23T05:12:44.569Z,41.58
2019-01-23T05:15:13.693Z,18.50
2019-01-23T05:17:43.011Z,44.18
2019-01-23T05:20:16.415Z,39.90
2019-01-23T05:22:45.527Z,39.95
2019-01-23T05:25:14.832Z,38.60
2019-01-23T05:27:44.123Z,41.50
2019-01-23T05:30:23.489Z,45.03
2019-01-23T05:32:52.810Z,36.68
2019-01-23T05:35:21.869Z,43.65
2019-01-23T05:37:51.005Z,32.35
2019-01-23T05:40:20.072Z,32.20
2019-01-23T05:42:49.136Z,37.63
2019-01-23T05:45:18.497Z,45.52
2019-01-23T05:47:47.821Z,39.98
2019-01-23T05:50:18.967Z,34.78
2019-01-23T05:52:49.703Z,36.63
2019-01-23T05:55:19.034Z,34.60
2019-01-23T05:57:48.233Z,39.33
2019-01-23T06:00:21.154Z,38.20
2019-01-23T06:02:50.528Z,39.63
2019-01-23T06:05:21.271Z,39.75
2019-01-23T06:07:50.389Z,39.85
2019-01-23T06:10:19.771Z,36.28
2019-01-23T06:12:49.160Z,37.25
2019-01-23T06:15:18.280Z,35.38
2019-01-23T06:17:47.348Z,35.43
2019-01-23T06:20:20.193Z,36.10
2019-01-23T06:22:49.407Z,36.28
2019-01-23T06:25:18.513Z,37.88
2019-01-23T06:27:47.644Z,36.48
2019-01-23T06:30:23.311Z,35.95
2019-01-23T06:32:52.388Z,36.95
2019-01-23T06:35:21.461Z,34.23
2019-01-23T06:37:50.577Z,36.13
2019-01-23T06:40:21.019Z,36.77
2019-01-23T06:42:50.087Z,35.55
2019-01-23T06:45:20.002Z,37.45
2019-01-23T06:47:49.912Z,36.33
2019-01-23T06:50:21.392Z,32.23
2019-01-23T06:52:50.499Z,39.33
2019-01-23T06:55:19.866Z,35.30
2019-01-23T06:57:48.930Z,36.95
2019-01-23T07:00:21.937Z,41.20
2019-01-23T07:02:51.349Z,35.58
2019-01-23T07:05:20.428Z,35.05
2019-01-23T07:07:49.861Z,35.45
2019-01-23T07:10:24.591Z,40.33
2019-01-23T07:12:53.757Z,39.60
2019-01-23T07:15:23.105Z,37.35
2019-01-23T07:17:52.366Z,37.93
2019-01-23T07:20:24.429Z,37.50
2019-01-23T07:22:53.512Z,39.23
2019-01-23T07:25:22.763Z,40.25
2019-01-23T07:27:51.900Z,39.78
2019-01-23T07:30:36.893Z,40.65
2019-01-23T07:33:06.035Z,43.42
2019-01-23T07:35:35.088Z,41.58
2019-01-23T07:38:04.162Z,43.40
2019-01-23T07:40:33.281Z,45.90
2019-01-23T07:43:02.353Z,43.35
2019-01-23T07:45:31.686Z,40.83
2019-01-23T07:48:00.786Z,49.53
2019-01-23T07:50:30.184Z,46.87
2019-01-23T07:52:59.303Z,42.33
2019-01-23T07:55:28.387Z,48.50
2019-01-23T07:57:57.492Z,49.53
2019-01-23T08:00:31.482Z,49.00
2019-01-23T08:02:58.938Z,47.57
2019-01-23T08:05:27.973Z,47.27
2019-01-23T08:07:57.063Z,45.57
2019-01-23T08:10:26.126Z,49.67
2019-01-23T08:12:55.512Z,52.00
2019-01-23T08:15:28.637Z,47.67
2019-01-23T08:17:57.713Z,48.47
2019-01-23T08:20:29.380Z,50.53
2019-01-23T08:22:58.929Z,49.03
2019-01-23T08:25:28.034Z,47.37
2019-01-23T08:27:57.308Z,50.17
2019-01-23T08:30:26.744Z,49.23
2019-01-23T08:32:55.866Z,50.47
2019-01-23T08:35:25.006Z,51.10
2019-01-23T08:37:54.443Z,51.07
2019-01-23T08:40:23.554Z,48.03
2019-01-23T08:42:52.596Z,51.90
2019-01-23T08:45:21.946Z,52.53
2019-01-23T08:47:51.109Z,49.40
2019-01-23T08:50:27.701Z,47.63
2019-01-23T08:52:57.066Z,51.40
2019-01-23T08:55:26.111Z,51.27
2019-01-23T08:57:55.153Z,53.07
2019-01-23T09:00:24.591Z,56.55
2019-01-23T09:02:53.634Z,53.43
2019-01-23T09:05:23.147Z,55.73
2019-01-23T09:07:52.255Z,58.15
2019-01-23T09:10:27.438Z,53.78
2019-01-23T09:12:56.824Z,55.43
2019-01-23T09:15:28.505Z,52.17
2019-01-23T09:17:57.920Z,57.00
2019-01-23T09:20:27.039Z,54.23
2019-01-23T09:22:56.119Z,47.77
2019-01-23T09:25:27.658Z,48.73
2019-01-23T09:27:56.801Z,53.13
2019-01-23T09:30:36.879Z,49.57
2019-01-23T09:33:19.295Z,50.00
2019-01-23T09:36:20.419Z,52.40
2019-01-23T09:39:19.895Z,54.03
2019-01-23T09:42:02.970Z,50.57
2019-01-23T09:44:49.075Z,51.53
2019-01-23T09:47:31.674Z,51.88
2019-01-23T09:50:29.660Z,54.57
2019-01-23T09:53:18.473Z,54.27
2019-01-23T09:55:47.893Z,54.90
2019-01-23T09:58:16.973Z,53.17
2019-01-23T10:00:46.308Z,50.87
2019-01-23T10:03:15.578Z,50.08
2019-01-23T10:05:44.645Z,52.23
2019-01-23T10:08:13.702Z,53.70
2019-01-23T10:10:42.815Z,53.17
2019-01-23T10:13:11.882Z,54.67
2019-01-23T10:15:45.966Z,53.80
2019-01-23T10:18:15.386Z,53.23
2019-01-23T10:20:44.781Z,52.53
2019-01-23T10:23:13.843Z,53.02
2019-01-23T10:25:42.954Z,49.77
2019-01-23T10:28:12.485Z,53.73
2019-01-23T10:30:41.939Z,51.98
2019-01-23T10:33:11.396Z,52.37
2019-01-23T10:35:40.520Z,53.58
2019-01-23T10:38:09.894Z,53.85
2019-01-23T10:40:39.274Z,53.00
2019-01-23T10:43:08.343Z,69.37
2019-01-23T10:45:37.689Z,57.30
2019-01-23T10:48:06.894Z,51.10
2019-01-23T10:50:36.008Z,51.73
2019-01-23T10:53:05.072Z,57.93
2019-01-23T10:56:48.819Z,50.60
2019-01-23T11:00:00.321Z,52.03
2019-01-23T11:02:31.365Z,48.38
2019-01-23T11:05:00.757Z,55.93
2019-01-23T11:07:29.827Z,53.30
2019-01-23T11:09:58.950Z,53.23
2019-01-23T11:12:28.043Z,52.90
2019-01-23T11:14:57.072Z,52.50
2019-01-23T11:17:26.543Z,51.73
2019-01-23T11:19:55.956Z,54.60
2019-01-23T11:22:25.062Z,49.40
2019-01-23T11:24:54.140Z,54.33
2019-01-23T11:27:23.215Z,51.13
2019-01-23T11:29:52.279Z,53.20
2019-01-23T11:32:21.356Z,52.90
2019-01-23T11:34:50.387Z,50.63
2019-01-23T11:37:19.420Z,49.13
2019-01-23T11:39:48.498Z,53.30
2019-01-23T11:42:17.530Z,51.70
2019-01-23T11:44:46.884Z,48.97
2019-01-23T11:47:16.002Z,49.08
2019-01-23T11:49:45.056Z,54.47
2019-01-23T11:52:14.185Z,47.60
2019-01-23T11:54:43.605Z,49.43
2019-01-23T11:57:12.644Z,51.27
2019-01-23T11:59:41.982Z,50.77
2019-01-23T12:02:11.154Z,49.20
2019-01-23T12:04:40.474Z,56.08
2019-01-23T12:07:09.513Z,57.23
2019-01-23T12:09:38.588Z,52.93
2019-01-23T12:12:07.620Z,49.23
2019-01-23T12:14:36.968Z,52.47
2019-01-23T12:17:06.096Z,51.80
2019-01-23T12:19:35.167Z,49.80
2019-01-23T12:22:04.455Z,50.03
2019-01-23T12:24:33.870Z,51.20
2019-01-23T12:27:02.898Z,50.83
2019-01-23T12:29:31.961Z,53.33
2019-01-23T12:32:01.295Z,49.07
2019-01-23T12:34:30.330Z,52.20
2019-01-23T12:36:59.387Z,50.20
2019-01-23T12:39:28.738Z,48.37
2019-01-23T12:41:58.036Z,51.53
2019-01-23T12:44:27.334Z,55.53
2019-01-23T12:46:57.204Z,49.77
2019-01-23T12:49:26.267Z,52.17
2019-01-23T12:51:55.639Z,52.13
2019-01-23T12:54:24.972Z,54.33
2019-01-23T12:56:54.051Z,49.13
2019-01-23T12:59:23.168Z,49.55
2019-01-23T13:01:52.240Z,47.90
2019-01-23T13:04:21.297Z,48.40
2019-01-23T13:06:50.370Z,45.97
2019-01-23T13:09:19.448Z,50.60
2019-01-23T13:11:48.807Z,44.80
2019-01-23T13:14:17.843Z,47.73
2019-01-23T13:16:47.322Z,45.53
2019-01-23T13:19:16.442Z,50.97
2019-01-23T13:21:45.556Z,46.37
2019-01-23T13:24:14.602Z,48.13
2019-01-23T13:26:44.209Z,52.45
2019-01-23T13:29:13.300Z,50.17
2019-01-23T13:31:48.883Z,49.10
2019-01-23T13:34:13.366Z,50.40
2019-01-23T13:36:42.735Z,53.17
2019-01-23T13:39:11.848Z,49.50
2019-01-23T13:41:40.878Z,52.23
2019-01-23T13:44:09.967Z,52.43
2019-01-23T13:46:39.002Z,48.13
2019-01-23T13:49:09.739Z,46.40
2019-01-23T13:51:39.076Z,51.80
2019-01-23T13:54:08.460Z,50.63
2019-01-23T13:56:37.578Z,55.20
2019-01-23T13:59:06.705Z,49.57
2019-01-23T14:01:36.037Z,46.70
2019-01-23T14:04:05.205Z,48.93
2019-01-23T14:06:34.396Z,43.30
2019-01-23T14:09:07.199Z,50.90
2019-01-23T14:11:36.376Z,49.37
2019-01-23T14:14:05.794Z,52.53
2019-01-23T14:16:35.055Z,51.27
2019-01-23T14:19:10.122Z,46.03
2019-01-23T14:21:39.448Z,49.17
2019-01-23T14:24:08.486Z,57.53
2019-01-23T14:26:37.575Z,53.73
2019-01-23T14:29:06.951Z,50.17
2019-01-23T14:31:35.984Z,53.27
2019-01-23T14:34:05.113Z,52.97
2019-01-23T14:36:34.122Z,50.53
2019-01-23T14:39:04.558Z,54.23
2019-01-23T14:41:33.649Z,57.47
2019-01-23T14:44:02.714Z,54.87
2019-01-23T14:46:31.806Z,54.83
2019-01-23T14:49:00.881Z,54.13
2019-01-23T14:51:29.924Z,61.20
2019-01-23T14:53:58.992Z,56.10
2019-01-23T14:56:28.075Z,51.77
2019-01-23T14:58:57.413Z,57.80
2019-01-23T15:01:26.519Z,54.33
2019-01-23T15:03:55.916Z,52.88
2019-01-23T15:06:25.325Z,52.17
2019-01-23T15:08:54.558Z,50.47
2019-01-23T15:11:23.925Z,53.43
2019-01-23T15:13:53.035Z,51.33
2019-01-23T15:16:22.425Z,51.00
2019-01-23T15:18:51.603Z,48.43
2019-01-23T15:21:20.824Z,47.33
2019-01-23T15:23:49.981Z,40.50
2019-01-23T15:26:19.525Z,43.57
2019-01-23T15:28:48.641Z,47.03
2019-01-23T15:31:17.740Z,44.80
2019-01-23T15:33:46.920Z,43.83
2019-01-23T15:36:16.112Z,41.27
2019-01-23T15:38:45.520Z,46.07
2019-01-23T15:41:14.676Z,42.67
2019-01-23T15:43:43.801Z,41.60
2019-01-23T15:46:13.203Z,43.67
2019-01-23T15:48:42.395Z,42.77
2019-01-23T15:51:11.801Z,36.93
2019-01-23T15:53:41.428Z,39.47
2019-01-23T15:56:14.917Z,36.38
2019-01-23T15:58:44.195Z,36.05
2019-01-23T16:01:13.335Z,41.97
2019-01-23T16:03:42.648Z,38.30
2019-01-23T16:06:11.988Z,38.77
2019-01-23T16:08:41.512Z,35.45
2019-01-23T16:11:11.004Z,38.78
2019-01-23T16:13:42.352Z,39.45
2019-01-23T16:16:11.282Z,39.50
2019-01-23T16:18:40.752Z,38.73
2019-01-23T16:21:09.885Z,39.13
2019-01-23T16:23:39.251Z,37.70
2019-01-23T16:26:08.642Z,39.73
2019-01-23T16:28:37.773Z,42.38
2019-01-23T16:31:07.011Z,39.73
2019-01-23T16:33:36.153Z,42.73
2019-01-23T16:36:05.255Z,44.80
2019-01-23T16:38:34.379Z,39.97
2019-01-23T16:41:03.577Z,43.33
2019-01-23T16:43:32.722Z,37.43
2019-01-23T16:46:01.940Z,42.20
2019-01-23T16:48:31.212Z,41.57
2019-01-23T16:51:00.356Z,43.20
2019-01-23T16:53:30.049Z,40.17
2019-01-23T16:55:59.774Z,39.83
2019-01-23T16:58:29.859Z,37.67
2019-01-23T17:00:59.115Z,28.07
2019-01-23T17:03:28.838Z,33.35
2019-01-23T17:05:58.375Z,42.45
2019-01-23T17:08:27.875Z,40.43
2019-01-23T17:10:57.654Z,37.70
2019-01-23T17:13:26.923Z,38.23
2019-01-23T17:15:56.394Z,44.13
2019-01-23T17:18:25.831Z,39.10
2019-01-23T17:20:55.222Z,37.90
2019-01-23T17:23:24.483Z,43.15
2019-01-23T17:25:54.224Z,37.67
2019-01-23T17:28:24.020Z,41.30
2019-01-23T17:30:53.311Z,39.80
2019-01-23T17:33:23.154Z,43.75
2019-01-23T17:35:52.641Z,41.85
2019-01-23T17:38:22.755Z,39.40
2019-01-23T17:40:52.267Z,40.73
2019-01-23T17:43:21.987Z,40.78
2019-01-23T17:45:52.156Z,44.45
2019-01-23T17:48:21.928Z,39.70
2019-01-23T17:50:52.306Z,39.80
2019-01-23T17:53:21.829Z,40.73
2019-01-23T17:55:51.487Z,43.13
2019-01-23T17:58:21.527Z,38.60
2019-01-23T18:00:52.508Z,33.18
2019-01-23T18:03:22.130Z,36.50
2019-01-23T18:05:51.742Z,39.70
2019-01-23T18:08:21.653Z,38.95
2019-01-23T18:10:51.493Z,42.80
2019-01-23T18:13:21.214Z,40.03
2019-01-23T18:15:51.088Z,43.58
2019-01-23T18:18:20.921Z,40.80
2019-01-23T18:20:50.688Z,43.48
2019-01-23T18:23:20.824Z,45.88
2019-01-23T18:25:50.980Z,36.88
2019-01-23T18:28:21.030Z,44.95
2019-01-23T18:31:05.002Z,41.10
2019-01-23T18:33:45.416Z,38.48
2019-01-23T18:36:23.282Z,36.40
2019-01-23T18:39:04.110Z,44.67
2019-01-23T18:41:47.681Z,35.48
2019-01-23T18:44:37.853Z,39.15
2019-01-23T18:47:24.660Z,46.45
2019-01-23T18:50:14.340Z,47.13
2019-01-23T18:52:44.492Z,20.77
2019-01-23T18:55:18.343Z,6.55
2019-01-23T18:57:48.651Z,44.88
2019-01-23T19:00:22.528Z,14.90
2019-01-23T19:02:53.123Z,31.87
2019-01-23T19:05:23.315Z,31.15
2019-01-23T19:07:53.770Z,30.35
2019-01-23T19:10:24.310Z,38.42
2019-01-23T19:12:54.583Z,38.90
2019-01-23T19:15:25.100Z,43.23
2019-01-23T19:17:54.994Z,41.33
2019-01-23T19:20:25.473Z,34.98
2019-01-23T19:22:55.832Z,43.87
2019-01-23T19:25:26.205Z,45.28
2019-01-23T19:27:59.598Z,44.50
2019-01-23T19:30:30.075Z,39.92
2019-01-23T19:33:00.322Z,43.63
2019-01-23T19:35:32.760Z,45.80
2019-01-23T19:38:03.205Z,41.50
2019-01-23T19:40:33.736Z,39.67
2019-01-23T19:43:04.011Z,35.52
2019-01-23T19:45:34.486Z,38.83
2019-01-23T19:48:05.046Z,43.70
2019-01-23T19:50:35.277Z,38.00
2019-01-23T19:53:05.460Z,47.35
2019-01-23T19:55:35.927Z,41.88
2019-01-23T19:58:06.245Z,47.27
2019-01-23T20:00:36.485Z,47.85
2019-01-23T20:03:06.716Z,47.53
2019-01-23T20:05:36.964Z,44.33
2019-01-23T20:08:07.149Z,37.98
2019-01-23T20:10:37.565Z,42.78
2019-01-23T20:13:07.903Z,41.95
2019-01-23T20:15:38.184Z,45.88
2019-01-23T20:18:08.286Z,44.53
2019-01-23T20:20:37.951Z,48.35
2019-01-23T20:23:08.064Z,47.35
2019-01-23T20:25:38.348Z,45.73
2019-01-23T20:28:09.172Z,48.15
2019-01-23T20:30:39.391Z,45.55
2019-01-23T20:33:09.317Z,49.10
2019-01-23T20:35:39.178Z,47.53
2019-01-23T20:38:08.850Z,52.43
2019-01-23T20:40:38.749Z,50.75
2019-01-23T20:43:08.888Z,54.23
2019-01-23T20:45:38.832Z,60.80
2019-01-23T20:48:09.704Z,59.55
2019-01-23T20:50:39.994Z,59.73
2019-01-23T20:53:09.867Z,57.65
2019-01-23T20:55:40.184Z,64.65
2019-01-23T20:58:10.359Z,60.25
2019-01-23T21:00:40.869Z,56.68
2019-01-23T21:03:11.048Z,60.83
2019-01-23T21:05:41.081Z,57.05
2019-01-23T21:08:11.200Z,63.02
2019-01-23T21:10:41.106Z,60.73
2019-01-23T21:13:11.070Z,61.05
2019-01-23T21:15:41.223Z,64.97
2019-01-23T21:18:10.847Z,62.35
2019-01-23T21:20:40.156Z,64.72
2019-01-23T21:23:09.728Z,61.53
2019-01-23T21:25:39.422Z,61.58
2019-01-23T21:28:09.327Z,62.55
2019-01-23T21:30:39.191Z,59.77
2019-01-23T21:33:09.109Z,60.92
2019-01-23T21:35:38.735Z,62.40
2019-01-23T21:38:08.626Z,60.35
2019-01-23T21:40:38.316Z,62.38
2019-01-23T21:43:08.204Z,61.35
2019-01-23T21:45:37.967Z,62.05
2019-01-23T21:48:07.932Z,63.85
2019-01-23T21:50:37.462Z,64.37
2019-01-23T21:53:06.706Z,62.25
2019-01-23T21:55:36.268Z,61.75
2019-01-23T21:58:06.389Z,62.48
2019-01-23T22:00:42.558Z,63.78
2019-01-23T22:03:12.488Z,64.72
2019-01-23T22:05:41.873Z,61.68
2019-01-23T22:08:11.281Z,66.12
2019-01-23T22:10:40.394Z,61.90
2019-01-23T22:13:09.538Z,62.25
2019-01-23T22:15:38.670Z,60.20
2019-01-23T22:18:08.195Z,60.05
2019-01-23T22:20:37.257Z,55.33
2019-01-23T22:23:06.658Z,55.10
2019-01-23T22:25:35.769Z,59.08
2019-01-23T22:28:06.298Z,54.18
2019-01-23T22:30:35.433Z,54.05
2019-01-23T22:33:04.613Z,58.40
2019-01-23T22:35:33.681Z,55.52
2019-01-23T22:38:03.089Z,58.48
2019-01-23T22:40:32.259Z,53.33
2019-01-23T22:43:01.336Z,57.35
2019-01-23T22:45:30.398Z,63.40
2019-01-23T22:47:59.776Z,56.30
2019-01-23T22:50:29.095Z,58.90
2019-01-23T22:52:58.460Z,56.45
2019-01-23T22:55:27.569Z,55.05
2019-01-23T22:57:56.632Z,55.55
2019-01-23T23:00:35.297Z,59.33
2019-01-23T23:03:04.738Z,30.48
2019-01-23T23:05:34.077Z,52.78
2019-01-23T23:08:03.424Z,52.38
2019-01-23T23:10:32.777Z,56.23
2019-01-23T23:13:02.180Z,55.33
2019-01-23T23:15:31.295Z,53.98
2019-01-23T23:18:00.379Z,58.90
2019-01-23T23:20:29.447Z,54.75
2019-01-23T23:22:58.869Z,57.20
2019-01-23T23:25:27.940Z,57.15
2019-01-23T23:27:57.076Z,57.55
2019-01-23T23:30:26.880Z,52.88
2019-01-23T23:32:55.951Z,55.83
2019-01-23T23:35:25.023Z,56.68
2019-01-23T23:37:54.132Z,59.67
2019-01-23T23:40:23.468Z,48.42
2019-01-23T23:42:52.538Z,59.70
2019-01-23T23:45:21.672Z,51.90
2019-01-23T23:47:50.792Z,57.80
2019-01-23T23:50:20.160Z,55.63
2019-01-23T23:52:49.559Z,54.83
2019-01-23T23:55:18.636Z,59.55
2019-01-23T23:57:47.915Z,56.55
